Time;durP1;ratioP1;P1;durP2;ratioP2;P2;SDS_P1;SDS_P2;PMS_P1;PMS_P2;Temp;Humidity;BMP_temperature;BMP_pressure;BME280_temperature;BME280_humidity;BME280_pressure;Samples;Min_cycle;Max_cycle;Signal;HPM_P1;HPM_P2
2021/12/19 00:02:38;;;;;;;0.30;0.20;;;;;;;3.07;45.82;95742.13;5135524;27;21012;-54
2021/12/19 00:10:40;;;;;;;0.30;0.20;;;;;;;3.44;45.42;95773.72;5136199;27;20457;-54
2021/12/19 00:13:09;;;;;;;0.30;0.20;;;;;;;3.28;50.87;95758.50;5136108;27;20422;-54
2021/12/19 00:15:38;;;;;;;0.30;0.20;;;;;;;2.25;43.97;95632.31;5136117;27;20989;-54
2021/12/19 00:18:06;;;;;;;0.30;0.20;;;;;;;3.18;45.01;95740.66;5136327;27;20517;-54
2021/12/19 00:20:35;;;;;;;0.30;0.20;;;;;;;3.18;57.46;95745.88;5135963;27;20458;-54
2021/12/19 00:23:23;;;;;;;0.30;0.20;;;;;;;3.25;45.35;95748.44;5135835;27;20438;-54
2021/12/19 00:25:54;;;;;;;0.23;0.20;;;;;;;3.12;45.98;95751.97;5136317;27;20410;-54
2021/12/19 00:28:22;;;;;;;0.30;0.20;;;;;;;2.93;45.51;95739.81;5135895;27;20439;-54
2021/12/19 00:30:50;;;;;;;0.30;0.20;;;;;;;1.97;45.16;95566.53;5135945;27;20501;-54
2021/12/19 00:33:19;;;;;;;0.30;0.20;;;;;;;3.27;44.07;95735.94;5136128;27;20502;-54
2021/12/19 00:35:48;;;;;;;0.30;0.20;;;;;;;2.73;44.04;95653.56;5135788;27;20441;-54
2021/12/19 00:38:16;;;;;;;0.30;0.20;;;;;;;3.05;45.13;95681.31;5135973;27;20454;-54
2021/12/19 00:40:45;;;;;;;0.30;0.20;;;;;;;3.50;44.71;95726.47;5135772;27;20501;-54
2021/12/19 00:43:23;;;;;;;0.30;0.20;;;;;;;3.36;44.07;95718.94;5135969;27;20451;-54
2021/12/19 00:45:53;;;;;;;0.30;0.20;;;;;;;3.10;44.37;95715.53;5134790;27;20883;-54
2021/12/19 00:48:22;;;;;;;0.30;0.20;;;;;;;3.45;44.23;95707.97;5135410;27;20944;-54
2021/12/19 00:50:50;;;;;;;0.30;0.20;;;;;;;3.07;43.71;95599.94;5135432;27;20851;-54
2021/12/19 00:53:19;;;;;;;0.30;0.20;;;;;;;3.80;44.88;95711.69;5135231;27;20457;-54
2021/12/19 00:55:47;;;;;;;0.30;0.20;;;;;;;2.77;44.29;95641.66;5135079;27;20434;-54
2021/12/19 00:58:17;;;;;;;1.43;1.33;;;;;;;3.10;44.45;95710.28;5134855;27;20441;-54
2021/12/19 01:00:46;;;;;;;0.30;0.30;;;;;;;1.97;44.96;95501.19;5135342;27;20534;-54
2021/12/19 01:03:16;;;;;;;0.30;0.20;;;;;;;2.98;45.56;95705.94;5135378;27;20438;-54
2021/12/19 01:05:45;;;;;;;0.40;0.30;;;;;;;2.71;45.83;95707.16;5135279;27;20426;-54
2021/12/19 01:08:13;;;;;;;0.30;0.20;;;;;;;2.62;46.23;95688.25;5134981;27;20435;-55
2021/12/19 01:10:44;;;;;;;0.30;0.20;;;;;;;3.02;46.33;95707.13;5135248;27;20466;-54
2021/12/19 01:13:14;;;;;;;0.30;0.20;;;;;;;2.81;47.94;95702.25;5134847;27;20423;-55
2021/12/19 01:15:44;;;;;;;0.30;0.30;;;;;;;2.87;46.11;95704.00;5134881;27;20978;-54
2021/12/19 01:18:14;;;;;;;0.30;0.20;;;;;;;2.94;44.98;95704.75;5134819;27;20434;-54
2021/12/19 01:20:43;;;;;;;0.30;0.20;;;;;;;2.74;45.81;95706.69;5134818;27;20458;-54
2021/12/19 01:23:13;;;;;;;0.30;0.20;;;;;;;2.77;45.72;95699.25;5134703;27;20486;-54
2021/12/19 01:25:42;;;;;;;1.70;1.07;;;;;;;2.20;45.81;95653.06;5134770;27;20427;-55
2021/12/19 01:28:11;;;;;;;0.30;0.20;;;;;;;2.95;45.76;95691.47;5134681;27;20941;-54
2021/12/19 01:30:40;;;;;;;0.30;0.20;;;;;;;2.50;45.64;95672.41;5134560;27;20901;-54
2021/12/19 01:33:09;;;;;;;0.30;0.20;;;;;;;2.62;45.79;95696.09;5134774;27;20455;-54
2021/12/19 01:35:38;;;;;;;0.30;0.20;;;;;;;2.63;46.40;95692.50;5134752;27;20850;-54
2021/12/19 01:38:06;;;;;;;0.30;0.20;;;;;;;1.39;47.06;95489.25;5134421;27;20474;-54
2021/12/19 01:40:35;;;;;;;0.30;0.20;;;;;;;2.33;46.46;95666.06;5134224;27;20476;-54
2021/12/19 01:43:03;;;;;;;0.30;0.20;;;;;;;2.54;46.38;95655.31;5134556;27;20525;-55
2021/12/19 01:45:34;;;;;;;0.30;0.20;;;;;;;2.54;46.95;95662.34;5134558;27;20514;-54
2021/12/19 01:48:05;;;;;;;0.30;0.20;;;;;;;3.00;46.33;95677.72;5134155;27;20422;-54
2021/12/19 01:50:36;;;;;;;0.30;0.20;;;;;;;1.86;46.31;95501.84;5134151;27;20795;-54
2021/12/19 01:53:08;;;;;;;0.30;0.20;;;;;;;2.54;47.20;95634.38;5134069;27;20462;-54
2021/12/19 01:55:36;;;;;;;0.30;0.20;;;;;;;1.31;47.83;95466.00;5133365;27;20945;-54
2021/12/19 01:58:05;;;;;;;0.30;0.20;;;;;;;2.37;48.03;95656.81;5134008;27;20473;-54
2021/12/19 02:00:36;;;;;;;0.30;0.20;;;;;;;2.42;48.25;95670.06;5133657;27;20916;-54
2021/12/19 02:03:06;;;;;;;0.30;0.20;;;;;;;2.10;48.06;95636.25;5133844;27;20469;-54
2021/12/19 02:05:36;;;;;;;0.30;0.20;;;;;;;2.76;48.62;95668.06;5134172;27;20452;-54
2021/12/19 02:08:09;;;;;;;0.30;0.20;;;;;;;2.25;48.03;95616.63;5134191;27;20470;-54
2021/12/19 02:10:38;;;;;;;0.77;0.77;;;;;;;2.03;47.82;95560.44;5132563;27;20994;-54
2021/12/19 02:13:09;;;;;;;0.70;0.30;;;;;;;2.42;49.31;95664.84;5133731;27;20986;-54
2021/12/19 02:15:39;;;;;;;0.30;0.20;;;;;;;2.52;49.30;95664.38;5133993;27;20503;-54
2021/12/19 02:18:11;;;;;;;0.30;0.20;;;;;;;2.49;48.35;95649.91;5133738;27;20430;-55
2021/12/19 02:20:43;;;;;;;0.30;0.20;;;;;;;2.40;48.42;95659.00;5133540;27;20411;-54
2021/12/19 02:23:12;;;;;;;0.33;0.33;;;;;;;2.28;47.65;95650.22;5133566;27;20852;-54
2021/12/19 02:25:41;;;;;;;0.30;0.20;;;;;;;1.86;47.91;95565.38;5133902;27;20426;-54
2021/12/19 02:28:10;;;;;;;0.30;0.20;;;;;;;2.24;48.25;95607.19;5133555;27;21057;-54
2021/12/19 02:30:39;;;;;;;0.30;0.20;;;;;;;2.86;47.14;95629.13;5133286;27;20466;-54
2021/12/19 02:33:12;;;;;;;0.30;0.20;;;;;;;2.56;47.02;95648.03;5133720;27;20824;-54
2021/12/19 02:35:46;;;;;;;0.30;0.20;;;;;;;2.67;47.33;95646.56;5132722;27;20850;-54
2021/12/19 02:39:06;;;;;;;0.30;0.20;;;;;;;2.41;45.77;95571.66;5133644;27;20434;-54
2021/12/19 02:49:51;;;;;;;0.30;0.20;;;;;;;2.25;46.30;95540.78;5089971;28;21038;-54
2021/12/19 02:52:21;;;;;;;0.30;0.20;;;;;;;2.62;48.04;95640.34;5114973;27;20848;-54
2021/12/19 02:54:49;;;;;;;0.30;0.20;;;;;;;2.30;49.66;95642.19;5133052;27;20926;-54
2021/12/19 02:57:18;;;;;;;0.30;0.20;;;;;;;1.85;51.17;95600.34;5133057;27;20500;-54
2021/12/19 02:59:46;;;;;;;0.30;0.20;;;;;;;2.46;50.33;95633.81;5132553;27;20510;-54
2021/12/19 03:02:15;;;;;;;0.30;0.20;;;;;;;2.38;49.69;95678.53;5132547;27;20534;-54
2021/12/19 03:04:53;;;;;;;0.30;0.20;;;;;;;2.46;49.70;95605.84;5133199;27;20431;-54
2021/12/19 03:07:25;;;;;;;0.30;0.20;;;;;;;2.53;51.34;95640.59;5132725;27;20461;-54
2021/12/19 03:10:06;;;;;;;0.30;0.20;;;;;;;2.32;50.79;95599.09;5132542;27;20525;-54
2021/12/19 03:12:48;;;;;;;0.30;0.20;;;;;;;1.48;50.99;95475.75;5133152;27;20457;-54
2021/12/19 03:18:08;;;;;;;0.30;0.20;;;;;;;2.10;49.72;95634.41;5133164;28;20430;-54
2021/12/19 03:20:38;;;;;;;0.30;0.20;;;;;;;2.00;51.24;95636.66;5132921;27;20430;-54
2021/12/19 03:23:10;;;;;;;0.30;0.20;;;;;;;2.04;51.03;95629.22;5132683;28;20981;-54
2021/12/19 03:25:38;;;;;;;0.30;0.20;;;;;;;2.23;50.58;95620.47;5132800;28;20513;-54
2021/12/19 03:28:09;;;;;;;0.30;0.20;;;;;;;1.63;50.08;95575.53;5132685;28;20441;-54
2021/12/19 03:30:38;;;;;;;0.30;0.20;;;;;;;2.47;49.62;95623.16;5133029;28;20419;-54
2021/12/19 03:33:07;;;;;;;0.23;0.10;;;;;;;2.53;49.77;95624.91;5132639;28;20415;-54
2021/12/19 03:35:36;;;;;;;0.30;0.20;;;;;;;1.08;49.33;95380.38;5132001;28;20934;-54
2021/12/19 03:38:09;;;;;;;0.30;0.20;;;;;;;2.35;49.11;95566.50;5133058;27;20442;-54
2021/12/19 03:40:40;;;;;;;0.30;0.20;;;;;;;2.68;49.80;95624.63;5132602;27;20477;-54
2021/12/19 03:43:10;;;;;;;0.30;0.20;;;;;;;2.03;51.10;95625.81;5132525;28;20973;-54
2021/12/19 03:45:40;;;;;;;0.30;0.20;;;;;;;2.18;51.29;95626.31;5132367;28;20419;-54
2021/12/19 03:48:12;;;;;;;0.30;0.20;;;;;;;1.62;52.06;95573.13;5132684;28;20855;-54
2021/12/19 03:50:43;;;;;;;0.30;0.20;;;;;;;1.81;52.52;95624.50;5132895;28;20773;-54
2021/12/19 03:53:14;;;;;;;0.30;0.20;;;;;;;1.53;53.81;95622.19;5132429;28;20949;-54
2021/12/19 03:55:44;;;;;;;0.30;0.20;;;;;;;1.71;52.91;95629.38;5132721;28;20506;-54
2021/12/19 03:58:13;;;;;;;0.30;0.20;;;;;;;1.90;51.83;95615.41;5132357;28;20435;-54
2021/12/19 04:00:43;;;;;;;0.30;0.20;;;;;;;1.90;51.67;95612.78;5131722;28;20467;-54
2021/12/19 04:03:18;;;;;;;0.30;0.20;;;;;;;2.28;51.37;95610.19;5132572;28;20474;-54
2021/12/19 04:05:47;;;;;;;0.30;0.20;;;;;;;2.20;51.61;95587.69;5131518;28;20512;-54
2021/12/19 04:08:17;;;;;;;0.30;0.20;;;;;;;0.73;52.97;95434.69;5132321;28;20910;-54
2021/12/19 04:10:47;;;;;;;0.30;0.20;;;;;;;1.92;55.55;95610.78;5132350;28;20415;-54
2021/12/19 04:13:15;;;;;;;0.30;0.30;;;;;;;1.44;55.87;95612.19;5132271;28;20534;-54
2021/12/19 04:15:44;;;;;;;0.30;0.20;;;;;;;1.13;55.76;95618.06;5132284;28;20450;-54
2021/12/19 04:18:13;;;;;;;0.30;0.30;;;;;;;1.02;56.95;95559.44;5132231;27;20484;-54
2021/12/19 04:20:41;;;;;;;0.30;0.23;;;;;;;1.23;55.81;95616.63;5135006;27;20429;-54
2021/12/19 04:23:10;;;;;;;0.30;0.20;;;;;;;1.51;55.03;95589.44;5135825;27;20474;-54
2021/12/19 04:25:40;;;;;;;0.30;0.23;;;;;;;1.82;53.24;95597.38;5135482;27;20457;-54
2021/12/19 04:28:08;;;;;;;1.50;1.50;;;;;;;1.72;53.85;95605.63;5135824;27;20832;-54
2021/12/19 04:30:37;;;;;;;0.70;0.70;;;;;;;1.37;56.22;95588.66;5136070;27;20451;-54
2021/12/19 04:33:09;;;;;;;0.30;0.20;;;;;;;1.53;57.61;95610.94;5135694;27;20466;-54
2021/12/19 04:35:41;;;;;;;0.87;0.87;;;;;;;1.53;57.98;95576.97;5135940;27;20431;-54
2021/12/19 04:55:34;;;;;;;0.40;0.40;;;;;;;1.36;59.26;95588.88;5125961;27;20485;-54
2021/12/19 04:58:18;;;;;;;0.47;0.47;;;;;;;1.54;55.79;95596.88;5135205;27;20439;-54
2021/12/19 05:00:57;;;;;;;0.40;0.40;;;;;;;1.56;55.63;95600.88;5094503;28;20436;-54
2021/12/19 05:03:40;;;;;;;0.37;0.37;;;;;;;1.25;55.40;95569.44;5094073;28;20470;-54
2021/12/19 05:06:16;;;;;;;0.30;0.20;;;;;;;0.62;55.91;95513.56;5094074;28;20432;-54
2021/12/19 05:14:21;;;;;;;0.30;0.20;;;;;;;1.29;55.38;95605.38;5094201;28;20522;-54
2021/12/19 05:16:51;;;;;;;0.30;0.20;;;;;;;1.41;54.41;95602.13;5093018;28;20528;-54
2021/12/19 05:19:26;;;;;;;0.30;0.20;;;;;;;1.70;53.64;95604.22;5092467;28;20436;-54
2021/12/19 05:21:58;;;;;;;0.30;0.20;;;;;;;1.51;53.40;95595.47;5093711;28;20471;-54
2021/12/19 05:24:49;;;;;;;0.30;0.20;;;;;;;1.43;52.63;95579.22;5093763;28;20464;-54
2021/12/19 05:27:19;;;;;;;0.30;0.20;;;;;;;1.56;53.17;95600.06;5093717;28;20951;-54
2021/12/19 05:29:49;;;;;;;0.30;0.20;;;;;;;1.58;54.47;95604.09;5093809;28;20463;-54
2021/12/19 05:32:17;;;;;;;0.30;0.20;;;;;;;1.52;54.06;95539.59;5093731;28;20900;-54
2021/12/19 05:34:45;;;;;;;0.30;0.20;;;;;;;1.85;54.37;95589.09;5093874;28;20512;-54
2021/12/19 05:45:32;;;;;;;0.30;0.20;;;;;;;1.95;52.60;95549.47;5092798;28;20980;-53
2021/12/19 05:48:01;;;;;;;0.30;0.20;;;;;;;2.35;52.03;95579.56;5093111;28;20420;-53
2021/12/19 05:50:29;;;;;;;0.30;0.20;;;;;;;2.36;50.97;95579.34;5093304;28;20519;-53
2021/12/19 05:52:58;;;;;;;0.30;0.20;;;;;;;1.50;53.88;95583.41;5093200;28;20574;-52
2021/12/19 05:55:27;;;;;;;0.30;0.20;;;;;;;0.99;58.57;95588.56;5093237;28;20444;-52
2021/12/19 05:57:56;;;;;;;0.30;0.30;;;;;;;1.39;58.98;95581.47;5093396;28;20432;-52
2021/12/19 06:00:24;;;;;;;3.50;1.17;;;;;;;1.22;60.80;95585.50;5127792;27;20554;-52
2021/12/19 06:02:54;;;;;;;0.30;0.20;;;;;;;0.53;64.15;95585.97;5133766;27;20562;-54
2021/12/19 06:05:23;;;;;;;0.33;0.27;;;;;;;-0.10;68.69;95557.81;5133403;27;20422;-53
2021/12/19 06:07:52;;;;;;;0.93;0.87;;;;;;;0.09;69.42;95587.53;5133841;27;20517;-53
2021/12/19 06:10:21;;;;;;;0.33;0.33;;;;;;;0.46;69.16;95592.19;5133597;27;20435;-53
2021/12/19 06:12:49;;;;;;;0.30;0.20;;;;;;;0.93;66.47;95589.38;5133626;27;20572;-54
2021/12/19 06:15:17;;;;;;;0.30;0.20;;;;;;;0.90;64.60;95524.56;5133738;27;20454;-54
2021/12/19 06:17:46;;;;;;;0.30;0.20;;;;;;;1.08;67.65;95589.16;5133324;27;20452;-54
2021/12/19 06:20:16;;;;;;;0.30;0.20;;;;;;;0.78;70.00;95591.41;5133858;27;20423;-54
2021/12/19 06:22:44;;;;;;;0.30;0.23;;;;;;;0.62;70.49;95524.81;5133659;27;20501;-54
2021/12/19 06:25:13;;;;;;;0.67;0.67;;;;;;;1.80;65.58;95589.72;5133495;27;20440;-54
2021/12/19 06:27:41;;;;;;;0.30;0.20;;;;;;;1.64;62.41;95518.88;5133282;27;20459;-54
2021/12/19 06:30:11;;;;;;;0.83;0.50;;;;;;;1.35;59.29;95425.38;5133369;27;20458;-54
2021/12/19 06:32:40;;;;;;;0.30;0.20;;;;;;;2.11;60.59;95596.81;5133566;27;20879;-54
2021/12/19 06:35:18;;;;;;;0.30;0.30;;;;;;;2.46;60.09;95594.56;5133594;27;20442;-54
2021/12/19 06:37:50;;;;;;;0.30;0.20;;;;;;;3.49;56.29;95593.84;5133009;27;20462;-54
2021/12/19 06:40:23;;;;;;;0.30;0.20;;;;;;;3.77;54.31;95593.31;5133355;27;20494;-53
2021/12/19 06:42:52;;;;;;;0.30;0.20;;;;;;;4.13;52.60;95588.03;5132049;27;21010;-53
2021/12/19 06:45:22;;;;;;;0.23;0.20;;;;;;;4.32;51.47;95588.81;5133339;27;20497;-54
2021/12/19 06:47:51;;;;;;;0.30;0.20;;;;;;;4.50;51.71;95594.00;5132861;27;20458;-54
2021/12/19 06:50:23;;;;;;;0.30;0.20;;;;;;;4.96;51.50;95599.31;5133016;27;20426;-53
2021/12/19 06:52:53;;;;;;;0.30;0.20;;;;;;;5.25;49.50;95599.44;5133030;27;20415;-53
2021/12/19 06:55:22;;;;;;;0.30;0.20;;;;;;;5.48;48.37;95594.19;5132721;27;20431;-53
2021/12/19 06:57:50;;;;;;;0.50;0.50;;;;;;;5.67;46.79;95588.53;5132985;27;20466;-52
2021/12/19 07:00:21;;;;;;;0.30;0.20;;;;;;;6.16;45.53;95586.38;5132416;27;20533;-52
2021/12/19 07:02:53;;;;;;;0.30;0.30;;;;;;;6.50;44.13;95584.63;5132783;27;20487;-52
2021/12/19 07:05:22;;;;;;;0.30;0.30;;;;;;;6.75;43.28;95580.59;5132499;27;20522;-51
2021/12/19 07:07:50;;;;;;;0.40;0.40;;;;;;;6.96;42.53;95579.06;5133077;27;20506;-51
2021/12/19 07:10:20;;;;;;;0.30;0.20;;;;;;;7.00;41.61;95525.66;5132600;27;20945;-51
2021/12/19 07:12:49;;;;;;;0.30;0.20;;;;;;;6.29;40.89;95407.94;5132747;27;20514;-51
2021/12/19 07:15:18;;;;;;;0.60;0.60;;;;;;;7.78;39.87;95569.44;5132686;27;20487;-51
2021/12/19 07:17:47;;;;;;;0.30;0.20;;;;;;;8.50;38.48;95562.06;5132767;28;20481;-50
2021/12/19 07:20:15;;;;;;;0.40;0.30;;;;;;;8.62;37.71;95554.81;5132476;28;20521;-49
2021/12/19 07:22:44;;;;;;;0.60;0.60;;;;;;;8.85;38.33;95524.59;5132742;28;20414;-50
2021/12/19 07:25:12;;;;;;;0.80;0.70;;;;;;;9.41;36.84;95539.00;5132572;28;21046;-50
2021/12/19 07:27:42;;;;;;;0.43;0.43;;;;;;;9.77;36.25;95547.88;5132666;28;20922;-50
2021/12/19 07:30:11;;;;;;;0.57;0.57;;;;;;;9.40;36.66;95542.69;5132619;28;20426;-50
2021/12/19 07:32:40;;;;;;;0.63;0.53;;;;;;;8.59;37.45;95554.50;5132311;28;21001;-51
2021/12/19 07:35:24;;;;;;;0.70;0.40;;;;;;;8.93;36.79;95545.25;5132849;27;20426;-52
2021/12/19 07:37:55;;;;;;;0.73;0.67;;;;;;;9.11;36.88;95544.84;5132556;28;20493;-51
2021/12/19 07:40:26;;;;;;;0.63;0.60;;;;;;;9.52;36.09;95527.38;5132117;28;20795;-51
2021/12/19 07:42:58;;;;;;;2.93;0.40;;;;;;;10.50;35.20;95538.88;5132509;28;20487;-52
2021/12/19 07:45:26;;;;;;;0.57;0.40;;;;;;;10.26;35.83;95535.13;5129103;28;20473;-52
2021/12/19 07:47:55;;;;;;;2.23;0.40;;;;;;;11.65;34.11;95538.00;5130641;28;20499;-52
2021/12/19 07:50:23;;;;;;;0.40;0.40;;;;;;;11.15;34.51;95541.56;5130401;28;20461;-53
2021/12/19 07:52:52;;;;;;;0.40;0.40;;;;;;;10.86;34.30;95532.53;5130074;27;20440;-54
2021/12/19 07:55:21;;;;;;;0.60;0.60;;;;;;;11.67;32.63;95535.06;5134130;27;20496;-55
2021/12/19 07:57:49;;;;;;;0.47;0.40;;;;;;;12.26;32.39;95529.81;5134287;27;20597;-55
2021/12/19 08:00:20;;;;;;;0.80;0.80;;;;;;;12.88;32.17;95521.94;5135358;27;20506;-56
2021/12/19 08:02:50;;;;;;;1.47;1.37;;;;;;;12.46;31.49;95513.75;5135517;27;20454;-57
2021/12/19 08:05:21;;;;;;;0.37;0.30;;;;;;;12.54;32.23;95521.94;5136138;27;21059;-58
2021/12/19 08:07:55;;;;;;;0.60;0.60;;;;;;;12.51;31.09;95519.84;5136267;27;21017;-58
2021/12/19 08:13:07;;;;;;;0.80;0.80;;;;;;;15.04;29.83;95507.94;5137085;27;20464;-59
2021/12/19 08:15:38;;;;;;;6.10;0.60;;;;;;;13.57;29.43;95510.16;5135974;27;20461;-59
2021/12/19 08:18:07;;;;;;;8.13;0.73;;;;;;;13.69;35.06;95506.03;5136032;27;20447;-58
2021/12/19 08:20:36;;;;;;;0.50;0.50;;;;;;;13.30;29.64;95510.72;5135722;27;20929;-57
2021/12/19 08:23:05;;;;;;;0.70;0.63;;;;;;;13.07;29.77;95456.38;5135975;27;20441;-57
2021/12/19 08:25:33;;;;;;;0.40;0.30;;;;;;;13.71;28.95;95495.13;5135832;27;20462;-57
2021/12/19 08:28:02;;;;;;;0.50;0.50;;;;;;;13.74;29.47;95492.66;5135862;27;20965;-56
2021/12/19 08:30:30;;;;;;;0.50;0.43;;;;;;;13.71;29.26;95487.13;5135835;27;20522;-55
2021/12/19 08:33:00;;;;;;;0.50;0.37;;;;;;;14.34;27.97;95483.13;5135996;27;20876;-55
2021/12/19 08:35:28;;;;;;;2.27;2.20;;;;;;;14.65;27.72;95475.44;5135994;27;20441;-55
2021/12/19 08:37:57;;;;;;;2.30;0.90;;;;;;;13.85;27.95;95467.50;5135605;27;20423;-55
2021/12/19 08:40:27;;;;;;;1.70;0.50;;;;;;;13.19;29.58;95463.97;5135871;27;20415;-55
2021/12/19 08:42:57;;;;;;;4.30;2.03;;;;;;;13.42;30.10;95436.56;5135541;27;20971;-55
2021/12/19 08:45:26;;;;;;;5.37;4.37;;;;;;;12.84;30.01;95392.44;5135272;27;20502;-54
2021/12/19 08:47:54;;;;;;;0.40;0.40;;;;;;;13.19;30.28;95446.16;5135172;27;20452;-54
2021/12/19 08:50:25;;;;;;;4.40;4.10;;;;;;;12.72;29.50;95454.78;5135496;27;20427;-53
2021/12/19 08:52:53;;;;;;;4.20;1.87;;;;;;;13.89;30.37;95441.06;5135432;27;20491;-53
2021/12/19 08:55:22;;;;;;;1.87;1.77;;;;;;;14.15;28.36;95361.53;5135295;27;20422;-53
2021/12/19 08:57:51;;;;;;;1.57;1.47;;;;;;;15.79;31.18;95440.84;5134921;27;20914;-53
2021/12/19 09:00:20;;;;;;;3.80;1.60;;;;;;;15.58;26.42;95426.34;5134843;27;20502;-54
2021/12/19 09:02:53;;;;;;;1.13;1.03;;;;;;;14.44;27.72;95442.19;5135380;27;20496;-54
2021/12/19 09:05:26;;;;;;;0.87;0.83;;;;;;;14.06;27.54;95436.03;5133912;27;20574;-54
2021/12/19 09:07:55;;;;;;;1.27;0.80;;;;;;;14.50;27.48;95430.34;5134709;27;20506;-54
2021/12/19 09:10:24;;;;;;;2.40;0.70;;;;;;;13.53;28.22;95426.59;5135032;27;20505;-54
2021/12/19 09:12:53;;;;;;;0.87;0.40;;;;;;;13.31;29.44;95408.47;5134748;27;20454;-54
2021/12/19 09:15:22;;;;;;;0.60;0.40;;;;;;;13.82;28.27;95398.78;5135043;27;20423;-53
2021/12/19 09:17:51;;;;;;;1.17;0.60;;;;;;;13.06;28.75;95422.84;5134817;27;20820;-53
2021/12/19 09:20:20;;;;;;;0.70;0.70;;;;;;;14.08;28.48;95335.28;5134902;27;20426;-53
2021/12/19 09:22:50;;;;;;;0.60;0.50;;;;;;;15.39;27.21;95404.22;5135056;27;20453;-53
2021/12/19 09:25:20;;;;;;;2.10;0.53;;;;;;;15.20;26.55;95402.44;5134318;27;20552;-53
2021/12/19 09:27:48;;;;;;;1.50;0.90;;;;;;;14.60;27.37;95392.84;5134632;27;20446;-52
2021/12/19 09:30:17;;;;;;;0.60;0.50;;;;;;;13.40;28.34;95392.69;5134640;27;20933;-53
2021/12/19 09:32:45;;;;;;;0.60;0.40;;;;;;;14.06;27.79;95374.75;5134831;27;20453;-53
2021/12/19 09:35:16;;;;;;;0.70;0.70;;;;;;;14.44;27.30;95365.66;5134687;27;20425;-53
2021/12/19 09:37:44;;;;;;;1.13;0.87;;;;;;;14.91;26.43;95302.38;5134578;27;20921;-53
2021/12/19 09:40:20;;;;;;;3.43;1.10;;;;;;;15.59;25.96;95363.78;5134787;27;20442;-53
2021/12/19 09:42:51;;;;;;;0.73;0.73;;;;;;;14.89;26.82;95339.25;5134451;27;20494;-53
2021/12/19 09:45:21;;;;;;;0.67;0.67;;;;;;;15.20;26.23;95310.91;5134401;27;20515;-53
2021/12/19 09:47:49;;;;;;;1.20;1.10;;;;;;;15.25;26.59;95350.84;5134627;27;20415;-52
2021/12/19 09:50:18;;;;;;;3.13;0.80;;;;;;;16.29;25.47;95346.16;5134629;27;20950;-52
2021/12/19 09:52:49;;;;;;;0.80;0.80;;;;;;;16.76;25.54;95326.03;5134245;27;20427;-52
2021/12/19 09:55:21;;;;;;;0.40;0.30;;;;;;;17.04;25.86;95283.78;5134193;27;20419;-52
2021/12/19 09:57:53;;;;;;;0.50;0.40;;;;;;;17.50;24.79;95324.25;5134377;27;20478;-52
2021/12/19 10:00:22;;;;;;;1.87;1.77;;;;;;;16.72;24.78;95286.81;5133952;27;20561;-53
2021/12/19 10:02:50;;;;;;;0.93;0.83;;;;;;;16.73;25.70;95315.13;5134000;27;20427;-53
2021/12/19 10:05:22;;;;;;;0.40;0.30;;;;;;;16.81;25.65;95312.50;5133983;27;20565;-53
2021/12/19 10:07:53;;;;;;;3.50;0.80;;;;;;;16.79;25.47;95313.91;5133990;27;20422;-53
2021/12/19 10:10:41;;;;;;;2.63;1.17;;;;;;;16.67;24.84;95306.44;5133824;27;20953;-53
2021/12/19 10:13:10;;;;;;;1.27;1.23;;;;;;;16.40;25.24;95259.22;5133683;27;20518;-53
2021/12/19 10:15:43;;;;;;;0.60;0.40;;;;;;;16.92;25.03;95297.78;5134207;27;20458;-53
2021/12/19 10:18:15;;;;;;;1.07;1.07;;;;;;;14.76;25.84;95274.13;5132757;27;21009;-53
2021/12/19 10:20:50;;;;;;;0.50;0.40;;;;;;;15.53;29.73;95269.63;5133538;27;20427;-53
2021/12/19 10:23:22;;;;;;;0.50;0.50;;;;;;;17.27;24.54;95285.28;5133640;27;20917;-53
2021/12/19 10:26:03;;;;;;;0.50;0.50;;;;;;;16.91;24.28;95274.75;5133538;27;20862;-53
2021/12/19 10:28:32;;;;;;;1.10;0.53;;;;;;;16.61;24.59;95270.22;5133780;27;20441;-53
2021/12/19 10:31:03;;;;;;;0.60;0.53;;;;;;;15.89;24.78;95218.81;5133459;27;20455;-53
2021/12/19 10:33:33;;;;;;;0.50;0.50;;;;;;;15.22;25.02;95192.03;5133572;27;20466;-53
2021/12/19 10:36:04;;;;;;;0.40;0.40;;;;;;;15.80;25.61;95255.38;5133442;27;20865;-53
2021/12/19 10:38:35;;;;;;;0.40;0.30;;;;;;;17.44;23.85;95244.31;5133245;27;20514;-53
2021/12/19 10:41:12;;;;;;;0.40;0.30;;;;;;;17.23;24.94;95251.41;5133316;27;20452;-53
2021/12/19 10:43:45;;;;;;;0.50;0.40;;;;;;;17.28;23.25;95248.56;5133229;27;20479;-52
2021/12/19 10:46:14;;;;;;;0.63;0.40;;;;;;;18.02;23.81;95241.19;5133033;27;20508;-52
2021/12/19 10:48:43;;;;;;;0.40;0.30;;;;;;;19.17;24.99;95236.44;5132990;27;20419;-54
2021/12/19 10:51:15;;;;;;;0.40;0.20;;;;;;;18.63;21.08;95128.03;5133368;27;20418;-52
2021/12/19 10:53:45;;;;;;;0.70;0.50;;;;;;;20.17;24.32;95218.25;5132970;27;20434;-51
2021/12/19 10:56:18;;;;;;;0.60;0.50;;;;;;;19.96;21.53;95214.06;5132993;27;20431;-52
2021/12/19 10:58:52;;;;;;;0.40;0.30;;;;;;;20.61;22.91;95207.84;5132819;27;20872;-52
2021/12/19 11:01:26;;;;;;;0.50;0.40;;;;;;;20.19;20.45;95213.34;5133006;27;20431;-51
2021/12/19 11:04:00;;;;;;;0.93;0.93;;;;;;;19.55;21.16;95166.47;5132934;27;20509;-51
2021/12/19 11:06:33;;;;;;;0.50;0.40;;;;;;;18.32;21.56;95216.03;5132823;27;20481;-51
2021/12/19 11:09:07;;;;;;;0.50;0.40;;;;;;;17.53;23.00;95211.09;5132961;27;20946;-53
2021/12/19 11:11:45;;;;;;;0.40;0.30;;;;;;;18.00;21.79;95219.28;5132779;27;20503;-51
2021/12/19 11:14:17;;;;;;;1.00;0.50;;;;;;;18.31;21.64;95204.53;5133082;27;20434;-52
2021/12/19 11:16:46;;;;;;;4.03;0.33;;;;;;;18.11;21.73;95194.50;5132777;27;20985;-53
2021/12/19 11:19:15;;;;;;;0.40;0.30;;;;;;;17.93;21.76;95173.38;5132823;28;20450;-52
2021/12/19 11:21:44;;;;;;;0.60;0.60;;;;;;;17.03;22.17;95132.25;5132655;28;20446;-52
2021/12/19 11:24:14;;;;;;;1.13;0.73;;;;;;;17.41;22.07;95162.69;5132735;28;20451;-52
2021/12/19 11:26:46;;;;;;;0.47;0.47;;;;;;;18.89;22.98;95179.69;5132520;28;20563;-52
2021/12/19 11:29:15;;;;;;;0.70;0.50;;;;;;;17.94;23.08;95167.69;5134961;27;20509;-52
2021/12/19 11:31:47;;;;;;;0.60;0.40;;;;;;;17.72;22.14;95123.13;5137214;27;20810;-52
2021/12/19 11:34:25;;;;;;;0.50;0.40;;;;;;;18.52;22.41;95156.34;5136653;27;20820;-52
2021/12/19 11:37:00;;;;;;;0.50;0.30;;;;;;;18.47;21.90;95143.09;5136664;27;20465;-53
2021/12/19 11:39:32;;;;;;;0.40;0.33;;;;;;;17.91;22.80;95148.78;5136295;27;20421;-53
2021/12/19 11:42:21;;;;;;;0.47;0.30;;;;;;;15.78;25.11;95124.75;5137106;27;20501;-53
2021/12/19 11:45:06;;;;;;;0.53;0.50;;;;;;;15.52;25.42;95144.38;5136791;27;20895;-53
2021/12/19 11:47:42;;;;;;;0.53;0.40;;;;;;;18.28;23.46;95143.47;5136603;27;20552;-53
2021/12/19 11:50:17;;;;;;;0.40;0.30;;;;;;;16.86;24.70;95135.69;5136731;27;20483;-53
2021/12/19 11:52:50;;;;;;;0.50;0.30;;;;;;;18.41;23.22;95093.38;5136765;27;20740;-53
2021/12/19 11:55:29;;;;;;;0.80;0.43;;;;;;;16.67;24.31;95137.09;5136518;27;20461;-53
2021/12/19 11:58:38;;;;;;;0.53;0.53;;;;;;;18.18;23.81;95132.31;5136664;27;20403;-53
2021/12/19 12:01:10;;;;;;;0.40;0.30;;;;;;;16.81;23.95;95141.22;5136744;27;20427;-53
2021/12/19 12:03:47;;;;;;;0.97;0.80;;;;;;;15.68;26.32;95140.25;5136318;27;20941;-53
2021/12/19 12:06:25;;;;;;;0.80;0.80;;;;;;;15.65;25.04;95082.06;5136282;27;20458;-53
2021/12/19 12:09:14;;;;;;;0.80;0.67;;;;;;;16.64;25.01;95130.47;5136301;27;20633;-53
2021/12/19 12:12:09;;;;;;;0.50;0.40;;;;;;;17.44;24.62;95119.19;5136323;27;20434;-53
2021/12/19 12:14:42;;;;;;;1.00;1.00;;;;;;;17.10;24.57;95116.53;5136120;27;20418;-53
2021/12/19 12:17:17;;;;;;;11.37;1.23;;;;;;;15.74;25.68;95037.47;5136081;27;20451;-52
2021/12/19 12:19:48;;;;;;;0.50;0.30;;;;;;;16.53;25.03;95110.44;5135737;27;20525;-52
2021/12/19 12:22:36;;;;;;;0.40;0.30;;;;;;;17.13;26.33;95107.84;5135419;27;20429;-53
2021/12/19 12:25:17;;;;;;;0.57;0.53;;;;;;;16.36;25.43;95071.03;5135719;27;20418;-53
2021/12/19 12:27:51;;;;;;;0.40;0.30;;;;;;;15.58;25.88;95081.72;5135880;27;21015;-52
2021/12/19 12:30:25;;;;;;;1.30;0.40;;;;;;;14.67;27.40;95107.84;5135598;27;20865;-53
2021/12/19 12:32:56;;;;;;;0.50;0.30;;;;;;;15.21;26.69;95097.00;5135802;27;20450;-52
2021/12/19 12:35:28;;;;;;;0.80;0.80;;;;;;;14.73;27.18;95066.63;5135810;27;20974;-52
2021/12/19 12:37:56;;;;;;;0.70;0.70;;;;;;;15.12;26.96;95082.81;5135522;27;20427;-52
2021/12/19 12:40:30;;;;;;;0.40;0.30;;;;;;;16.34;26.54;95067.88;5134368;27;20414;-52
2021/12/19 12:43:01;;;;;;;1.30;0.60;;;;;;;15.16;25.29;94979.66;5135654;27;20486;-52
2021/12/19 12:45:31;;;;;;;0.60;0.60;;;;;;;16.30;25.74;95066.94;5135849;27;20454;-52
2021/12/19 12:48:00;;;;;;;0.40;0.30;;;;;;;16.48;25.30;95063.19;5135747;27;20462;-52
2021/12/19 12:50:28;;;;;;;0.40;0.37;;;;;;;17.29;24.67;95052.69;5135782;27;20482;-52